Time;durP1;ratioP1;P1;durP2;ratioP2;P2;SDS_P1;SDS_P2;PMS_P1;PMS_P2;Temp;Humidity;BMP_temperature;BMP_pressure;BME280_temperature;BME280_humidity;BME280_pressure;Samples;Min_cycle;Max_cycle;Signal;HPM_P1;HPM_P2
2022/01/04 00:00:53;;;;;;;17.97;6.90;;;8.10;99.90;;;;;;5042686;28;20212;-74
2022/01/04 00:03:43;;;;;;;19.57;7.13;;;8.10;99.90;;;;;;5038385;28;20297;-76
2022/01/04 00:06:32;;;;;;;19.43;8.00;;;8.10;99.90;;;;;;5035843;28;20600;-75
2022/01/04 00:09:25;;;;;;;18.40;7.80;;;8.10;99.90;;;;;;5035299;28;20223;-72
2022/01/04 00:15:21;;;;;;;15.23;7.30;;;8.10;99.90;;;;;;5036883;28;20216;-72
2022/01/04 00:18:10;;;;;;;20.50;7.13;;;8.10;99.90;;;;;;5049898;28;20234;-72
2022/01/04 00:20:59;;;;;;;15.27;6.97;;;8.10;99.90;;;;;;5049021;28;20212;-73
2022/01/04 00:23:47;;;;;;;16.60;7.03;;;8.10;99.90;;;;;;5049597;28;20228;-73
2022/01/04 00:26:36;;;;;;;17.80;7.63;;;8.20;99.90;;;;;;5050008;28;20224;-72
2022/01/04 00:29:26;;;;;;;19.50;8.23;;;8.10;99.90;;;;;;5039011;28;20214;-74
2022/01/04 00:32:15;;;;;;;17.33;7.33;;;8.10;99.90;;;;;;5033139;28;20763;-72
2022/01/04 00:35:04;;;;;;;15.70;7.40;;;8.10;99.90;;;;;;5051412;28;20751;-73
2022/01/04 00:37:57;;;;;;;13.23;6.90;;;8.10;99.90;;;;;;5036235;28;20218;-73
2022/01/04 00:40:46;;;;;;;17.13;6.87;;;8.10;99.90;;;;;;5035844;28;20732;-74
2022/01/04 00:43:35;;;;;;;16.20;7.20;;;8.20;99.90;;;;;;5034861;28;20220;-72
2022/01/04 00:46:25;;;;;;;19.23;7.70;;;8.20;99.90;;;;;;5050684;28;20296;-73
2022/01/04 00:49:17;;;;;;;16.13;7.00;;;8.10;99.90;;;;;;5052486;28;20443;-74
2022/01/04 00:52:07;;;;;;;16.17;6.87;;;8.10;99.90;;;;;;5048713;28;20233;-73
2022/01/04 00:54:55;;;;;;;14.23;6.77;;;8.10;99.90;;;;;;5046552;28;20242;-72
2022/01/04 00:57:44;;;;;;;16.47;7.00;;;8.10;99.90;;;;;;5036281;28;20221;-74
2022/01/04 01:00:34;;;;;;;17.40;7.50;;;8.10;99.90;;;;;;5034906;28;20213;-73
2022/01/04 01:03:24;;;;;;;16.30;7.10;;;8.10;99.90;;;;;;5052888;28;20231;-73
2022/01/04 01:06:13;;;;;;;17.37;7.30;;;8.10;99.90;;;;;;5035024;28;20212;-72
2022/01/04 01:09:02;;;;;;;13.83;6.20;;;8.00;99.90;;;;;;5036828;28;20311;-74
2022/01/04 01:11:50;;;;;;;13.90;6.40;;;8.00;99.90;;;;;;5049314;28;20213;-73
2022/01/04 01:14:39;;;;;;;17.90;6.63;;;8.00;99.90;;;;;;5036313;28;20234;-72
2022/01/04 01:17:28;;;;;;;17.90;6.57;;;8.00;99.90;;;;;;5043625;28;20216;-73
2022/01/04 01:20:18;;;;;;;14.17;6.60;;;8.00;99.90;;;;;;5049178;28;20228;-72
2022/01/04 01:23:07;;;;;;;17.83;7.13;;;8.00;99.90;;;;;;5043874;28;20221;-73
2022/01/04 01:25:57;;;;;;;17.67;7.10;;;7.90;99.90;;;;;;5049489;28;20216;-72
2022/01/04 01:28:49;;;;;;;18.03;7.37;;;7.80;99.90;;;;;;5045483;28;20224;-73
2022/01/04 01:31:38;;;;;;;17.20;7.07;;;7.70;99.90;;;;;;5053551;28;20221;-72
2022/01/04 01:34:26;;;;;;;17.03;7.20;;;7.70;99.90;;;;;;5039679;28;20300;-72
2022/01/04 01:37:16;;;;;;;15.30;6.53;;;7.60;99.90;;;;;;5053806;28;20247;-73
2022/01/04 01:40:06;;;;;;;16.77;6.50;;;7.60;99.90;;;;;;5054291;28;20247;-72
2022/01/04 01:42:55;;;;;;;16.57;6.77;;;7.60;99.90;;;;;;5055267;28;20231;-71
2022/01/04 01:45:45;;;;;;;16.03;7.23;;;7.50;99.90;;;;;;5052715;28;20232;-72
2022/01/04 01:48:37;;;;;;;15.17;6.87;;;7.50;99.90;;;;;;5042980;28;20285;-74
2022/01/04 01:51:30;;;;;;;15.53;7.17;;;7.50;99.90;;;;;;5056632;28;20217;-71
2022/01/04 01:54:24;;;;;;;15.90;7.03;;;7.40;99.90;;;;;;5054485;28;20308;-71
2022/01/04 01:57:13;;;;;;;15.03;7.00;;;7.40;99.90;;;;;;5054753;28;21024;-73
2022/01/04 02:00:02;;;;;;;15.30;6.97;;;7.40;99.90;;;;;;5052989;28;20216;-73
2022/01/04 02:02:51;;;;;;;14.07;6.73;;;7.40;99.90;;;;;;5054287;28;20712;-74
2022/01/04 02:05:41;;;;;;;18.03;7.30;;;7.40;99.90;;;;;;5054613;28;20220;-73
2022/01/04 02:08:30;;;;;;;18.47;7.30;;;7.30;99.90;;;;;;5050045;28;20259;-72
2022/01/04 02:11:22;;;;;;;17.50;6.73;;;7.40;99.90;;;;;;5050999;28;20879;-71
2022/01/04 02:14:10;;;;;;;18.07;6.50;;;7.40;99.90;;;;;;5039612;28;20227;-71
2022/01/04 02:16:59;;;;;;;17.60;6.23;;;7.40;99.90;;;;;;5054369;28;20519;-72
2022/01/04 02:19:49;;;;;;;15.40;6.77;;;7.40;99.90;;;;;;5037224;28;20229;-72
2022/01/04 02:22:39;;;;;;;13.70;6.13;;;7.50;99.90;;;;;;5050202;28;20244;-72
2022/01/04 02:25:28;;;;;;;16.83;6.50;;;7.50;99.90;;;;;;5051109;28;20222;-71
2022/01/04 02:28:20;;;;;;;15.37;6.10;;;7.40;99.90;;;;;;5049368;28;20229;-71
2022/01/04 02:31:09;;;;;;;16.47;6.17;;;7.40;99.90;;;;;;5057447;28;20223;-71
2022/01/04 02:33:57;;;;;;;17.30;5.97;;;7.30;99.90;;;;;;5041540;28;20235;-72
2022/01/04 02:36:47;;;;;;;15.17;5.40;;;7.30;99.90;;;;;;5035629;28;20672;-72
2022/01/04 02:39:37;;;;;;;16.67;5.73;;;7.30;99.90;;;;;;5051341;28;20335;-72
2022/01/04 02:42:25;;;;;;;13.83;6.40;;;7.30;99.90;;;;;;5056783;28;20233;-73
2022/01/04 02:45:14;;;;;;;13.67;5.83;;;7.30;99.90;;;;;;5038593;28;20253;-71
2022/01/04 02:48:03;;;;;;;17.23;5.97;;;7.30;99.90;;;;;;5044912;28;20893;-70
2022/01/04 02:50:52;;;;;;;13.73;5.83;;;7.30;99.90;;;;;;5059032;28;20235;-71
2022/01/04 02:53:42;;;;;;;12.10;5.63;;;7.30;99.90;;;;;;5037024;28;20298;-71
2022/01/04 02:56:34;;;;;;;13.03;6.00;;;7.20;99.90;;;;;;5062690;28;20220;-73
2022/01/04 02:59:23;;;;;;;17.57;6.10;;;7.20;99.90;;;;;;5060208;28;20232;-70
2022/01/04 03:02:11;;;;;;;17.47;6.10;;;7.30;99.90;;;;;;5042039;28;20216;-72
2022/01/04 03:05:00;;;;;;;14.17;5.70;;;7.30;99.90;;;;;;5051031;28;20662;-72
2022/01/04 03:07:49;;;;;;;11.27;5.90;;;7.30;99.90;;;;;;5052041;28;20220;-71
2022/01/04 03:10:39;;;;;;;11.80;5.67;;;7.30;99.90;;;;;;5041153;28;20220;-70
2022/01/04 03:13:27;;;;;;;13.83;6.47;;;7.30;99.90;;;;;;5038419;28;20223;-71
2022/01/04 03:16:16;;;;;;;14.03;6.40;;;7.30;99.90;;;;;;5053010;28;20232;-69
2022/01/04 03:19:06;;;;;;;13.23;5.60;;;7.30;99.90;;;;;;5048957;28;20223;-73
2022/01/04 03:21:55;;;;;;;15.43;5.57;;;7.30;99.90;;;;;;5036475;28;20228;-72
2022/01/04 03:24:43;;;;;;;15.50;6.50;;;7.30;99.90;;;;;;5052074;28;20216;-71
2022/01/04 03:27:33;;;;;;;12.30;6.03;;;7.20;99.90;;;;;;5057201;28;20343;-72
2022/01/04 03:30:22;;;;;;;13.77;5.97;;;7.20;99.90;;;;;;5053620;28;20232;-72
2022/01/04 03:33:11;;;;;;;10.40;5.17;;;7.20;99.90;;;;;;5052363;28;20212;-72
2022/01/04 03:35:59;;;;;;;14.13;5.73;;;7.20;99.90;;;;;;5052538;28;20239;-72
2022/01/04 03:38:49;;;;;;;12.40;6.00;;;7.20;99.90;;;;;;5031930;28;25636;-73
2022/01/04 03:41:40;;;;;;;13.63;5.90;;;7.20;99.90;;;;;;5053487;28;20558;-73
2022/01/04 03:44:30;;;;;;;15.80;5.57;;;7.10;99.90;;;;;;5050485;28;20857;-71
2022/01/04 03:47:22;;;;;;;17.70;6.47;;;7.10;99.90;;;;;;5041398;28;20926;-72
2022/01/04 03:50:10;;;;;;;15.03;5.90;;;7.10;99.90;;;;;;5055082;28;20228;-71
2022/01/04 03:52:59;;;;;;;14.80;6.50;;;7.10;99.90;;;;;;5051806;28;20231;-70
2022/01/04 03:55:47;;;;;;;13.23;6.20;;;7.20;99.90;;;;;;5053855;28;20225;-72
2022/01/04 03:58:36;;;;;;;14.83;6.03;;;7.20;99.90;;;;;;5051220;28;20239;-71
2022/01/04 04:01:26;;;;;;;14.77;5.83;;;7.20;99.90;;;;;;5037042;28;20759;-73
2022/01/04 04:04:16;;;;;;;14.50;5.83;;;7.20;99.90;;;;;;5041082;28;20320;-72
2022/01/04 04:07:04;;;;;;;18.77;7.20;;;7.20;99.90;;;;;;5049744;28;20236;-71
2022/01/04 04:09:53;;;;;;;12.20;5.90;;;7.20;99.90;;;;;;5037832;28;20260;-71
2022/01/04 04:12:42;;;;;;;13.53;5.50;;;7.10;99.90;;;;;;5054277;28;20228;-73
2022/01/04 04:15:31;;;;;;;12.30;5.47;;;7.10;99.90;;;;;;5051589;28;20231;-72
2022/01/04 04:18:21;;;;;;;10.87;5.67;;;7.10;99.90;;;;;;5051342;28;20354;-72
2022/01/04 04:21:10;;;;;;;12.13;5.23;;;7.10;99.90;;;;;;5050812;28;20240;-73
2022/01/04 04:23:59;;;;;;;12.57;6.37;;;7.10;99.90;;;;;;5049589;28;20233;-74
2022/01/04 04:26:47;;;;;;;9.90;5.17;;;7.00;99.90;;;;;;5039124;28;20240;-72
2022/01/04 04:29:36;;;;;;;10.53;5.40;;;7.00;99.90;;;;;;5051361;28;20224;-73
2022/01/04 04:32:25;;;;;;;13.20;5.53;;;7.00;99.90;;;;;;5039869;28;20302;-74
2022/01/04 04:35:15;;;;;;;12.00;5.70;;;7.00;99.90;;;;;;5049869;28;20739;-72
2022/01/04 04:38:06;;;;;;;12.50;5.20;;;7.00;99.90;;;;;;5038062;28;20251;-72
2022/01/04 04:40:55;;;;;;;14.37;6.07;;;7.00;99.90;;;;;;5036064;28;20242;-73
2022/01/04 04:43:43;;;;;;;15.43;6.50;;;7.00;99.90;;;;;;5038418;28;20220;-73
2022/01/04 04:46:32;;;;;;;11.23;5.60;;;7.00;99.90;;;;;;5051206;28;20275;-73
2022/01/04 04:49:21;;;;;;;15.20;6.03;;;7.10;99.90;;;;;;5049345;28;20593;-73
2022/01/04 04:52:11;;;;;;;14.67;5.70;;;7.10;99.90;;;;;;5046658;28;20596;-73
2022/01/04 04:55:03;;;;;;;10.07;5.90;;;7.10;99.90;;;;;;5038015;28;20216;-72
2022/01/04 04:57:51;;;;;;;13.80;6.60;;;7.10;99.90;;;;;;5055240;28;20236;-73
2022/01/04 05:00:40;;;;;;;12.30;5.73;;;7.20;99.90;;;;;;5044796;28;20258;-73
2022/01/04 05:03:29;;;;;;;10.30;6.00;;;7.20;99.90;;;;;;5053371;28;20350;-71
2022/01/04 05:06:18;;;;;;;15.07;6.13;;;7.20;99.90;;;;;;5035900;28;20223;-71
2022/01/04 05:09:08;;;;;;;12.83;6.23;;;7.20;99.90;;;;;;5041555;28;20228;-71
2022/01/04 05:11:57;;;;;;;14.47;5.87;;;7.20;99.90;;;;;;5061313;28;20231;-69
2022/01/04 05:14:46;;;;;;;15.00;6.30;;;7.20;99.90;;;;;;5054508;28;20221;-73
2022/01/04 05:17:39;;;;;;;13.23;5.93;;;7.20;99.90;;;;;;5052889;28;20297;-71
2022/01/04 05:20:28;;;;;;;13.20;6.00;;;7.20;99.90;;;;;;5052969;28;20231;-72
2022/01/04 05:23:16;;;;;;;14.83;6.47;;;7.20;99.90;;;;;;5039066;28;20236;-70
2022/01/04 05:26:09;;;;;;;14.40;6.30;;;7.20;99.90;;;;;;5053804;28;20236;-72
2022/01/04 05:28:58;;;;;;;11.80;6.37;;;7.20;99.90;;;;;;5052715;28;20231;-71
2022/01/04 05:31:50;;;;;;;14.13;6.77;;;7.20;99.90;;;;;;5054961;28;20815;-71
2022/01/04 05:34:39;;;;;;;12.23;6.57;;;7.20;99.90;;;;;;5051593;28;20240;-72
2022/01/04 05:37:28;;;;;;;14.80;6.87;;;7.20;99.90;;;;;;5040462;28;20232;-70
2022/01/04 05:40:16;;;;;;;11.53;6.17;;;7.20;99.90;;;;;;5054404;28;20265;-70
2022/01/04 05:43:06;;;;;;;14.97;6.77;;;7.20;99.90;;;;;;5055248;28;20220;-72
2022/01/04 05:45:55;;;;;;;12.27;7.23;;;7.30;99.90;;;;;;5036992;28;20228;-72
2022/01/04 05:48:44;;;;;;;14.60;6.77;;;7.30;99.90;;;;;;5053763;28;20220;-72
2022/01/04 05:51:32;;;;;;;14.97;7.27;;;7.30;99.90;;;;;;5036616;28;20236;-73
2022/01/04 05:54:21;;;;;;;15.23;7.10;;;7.30;99.90;;;;;;5038307;28;20228;-73
2022/01/04 05:57:13;;;;;;;13.13;7.30;;;7.30;99.90;;;;;;5052843;28;20231;-72
2022/01/04 06:00:05;;;;;;;15.23;7.63;;;7.30;99.90;;;;;;5042670;28;20258;-72
2022/01/04 06:02:58;;;;;;;15.17;7.40;;;7.20;99.90;;;;;;5049267;28;20256;-71
2022/01/04 06:05:47;;;;;;;13.00;6.90;;;7.10;99.90;;;;;;5043492;28;20234;-70
2022/01/04 06:08:37;;;;;;;14.87;7.70;;;7.10;99.90;;;;;;5058038;28;20220;-72
2022/01/04 06:11:54;;;;;;;15.10;7.17;;;7.10;99.90;;;;;;5058510;28;20217;-72
2022/01/04 06:17:50;;;;;;;14.93;7.43;;;7.10;99.90;;;;;;5045355;28;20224;-72
2022/01/04 06:20:39;;;;;;;17.23;8.27;;;7.00;99.90;;;;;;5055425;28;20228;-72
2022/01/04 06:23:28;;;;;;;18.03;7.97;;;7.00;99.90;;;;;;5045722;28;20222;-72
2022/01/04 06:26:17;;;;;;;14.83;7.20;;;7.00;99.90;;;;;;5052378;28;20212;-73
2022/01/04 06:29:05;;;;;;;17.80;7.37;;;7.00;99.90;;;;;;5042095;28;20227;-69
2022/01/04 06:31:54;;;;;;;16.40;8.00;;;7.00;99.90;;;;;;5041340;28;20220;-72
2022/01/04 06:34:45;;;;;;;12.73;7.63;;;7.00;99.90;;;;;;5054732;28;20216;-70
2022/01/04 06:37:34;;;;;;;18.97;8.27;;;7.00;99.90;;;;;;5056052;28;20225;-70
2022/01/04 06:40:22;;;;;;;16.00;9.30;;;7.00;99.90;;;;;;5061017;28;20212;-70
2022/01/04 06:43:11;;;;;;;15.37;8.30;;;7.00;99.90;;;;;;5056167;28;20224;-70
2022/01/04 06:45:59;;;;;;;15.13;8.47;;;7.10;99.90;;;;;;5057966;28;20224;-71
2022/01/04 06:48:48;;;;;;;17.77;8.27;;;7.10;99.90;;;;;;5056740;28;20225;-71
2022/01/04 06:51:42;;;;;;;18.03;7.93;;;7.00;99.90;;;;;;5041600;28;20240;-71
2022/01/04 06:54:30;;;;;;;14.43;8.10;;;7.00;99.90;;;;;;5055051;28;20224;-70
2022/01/04 06:57:19;;;;;;;16.63;8.13;;;7.00;99.90;;;;;;5038282;28;20229;-71
2022/01/04 07:00:08;;;;;;;21.20;8.70;;;7.10;99.90;;;;;;5042518;28;20239;-71
2022/01/04 07:02:57;;;;;;;17.87;8.87;;;7.10;99.90;;;;;;5039340;28;20299;-71
2022/01/04 07:05:46;;;;;;;20.27;9.37;;;7.00;99.90;;;;;;5054626;28;20228;-71
2022/01/04 07:08:36;;;;;;;17.30;8.67;;;7.10;99.90;;;;;;5049633;28;20229;-71
2022/01/04 07:11:25;;;;;;;20.27;10.60;;;7.10;99.90;;;;;;5052954;28;21425;-72
2022/01/04 07:14:13;;;;;;;18.67;9.77;;;7.10;99.90;;;;;;5049966;28;20228;-72
2022/01/04 07:17:02;;;;;;;20.90;10.10;;;7.00;99.90;;;;;;5049453;28;20244;-70
2022/01/04 07:19:51;;;;;;;18.43;10.00;;;7.10;99.90;;;;;;5055651;28;20216;-71
2022/01/04 07:22:43;;;;;;;21.17;10.53;;;7.10;99.90;;;;;;5055554;28;20814;-71
2022/01/04 07:25:32;;;;;;;18.40;10.57;;;7.10;99.90;;;;;;5051521;28;20323;-72
2022/01/04 07:28:21;;;;;;;20.63;10.17;;;7.20;99.90;;;;;;5044296;28;20235;-73
2022/01/04 07:31:10;;;;;;;22.70;11.27;;;7.10;99.90;;;;;;5040361;28;20216;-72
2022/01/04 07:33:59;;;;;;;22.13;10.37;;;7.10;99.90;;;;;;5053157;28;20275;-73
2022/01/04 07:36:47;;;;;;;20.33;10.10;;;7.10;99.90;;;;;;5036938;28;20317;-73
2022/01/04 07:39:36;;;;;;;18.20;11.17;;;7.10;99.90;;;;;;5036102;28;20252;-72
2022/01/04 07:42:30;;;;;;;20.00;10.77;;;7.10;99.90;;;;;;5039873;28;20220;-72
2022/01/04 07:45:18;;;;;;;19.97;10.63;;;7.20;99.90;;;;;;5036869;28;20219;-73
2022/01/04 07:48:10;;;;;;;19.30;11.40;;;7.20;99.90;;;;;;5052947;28;20684;-72
2022/01/04 07:50:59;;;;;;;15.93;10.73;;;7.20;99.90;;;;;;5038401;28;20254;-72
2022/01/04 07:53:50;;;;;;;17.47;10.90;;;7.20;99.90;;;;;;5054033;28;20303;-71
2022/01/04 07:56:39;;;;;;;19.40;10.83;;;7.20;99.90;;;;;;5054193;28;21236;-70
2022/01/04 07:59:30;;;;;;;21.10;11.13;;;7.20;99.90;;;;;;5048607;28;20233;-71
2022/01/04 08:02:19;;;;;;;18.30;11.47;;;7.20;99.90;;;;;;5047938;28;20233;-69
2022/01/04 08:05:08;;;;;;;19.00;11.93;;;7.30;99.90;;;;;;5045064;28;20225;-70
2022/01/04 08:07:57;;;;;;;17.33;11.37;;;7.30;99.90;;;;;;5056550;28;20612;-71
2022/01/04 08:10:48;;;;;;;15.37;10.50;;;7.30;99.90;;;;;;5055352;28;20224;-72
2022/01/04 08:13:36;;;;;;;16.00;10.87;;;7.30;99.90;;;;;;5040704;28;20239;-68
2022/01/04 08:16:26;;;;;;;22.63;12.90;;;7.30;99.90;;;;;;5038551;28;20250;-72
2022/01/04 08:19:15;;;;;;;20.97;11.43;;;7.40;99.90;;;;;;5046383;28;20232;-71
2022/01/04 08:22:04;;;;;;;20.97;11.80;;;7.30;99.90;;;;;;5048387;28;20231;-71
2022/01/04 08:24:52;;;;;;;19.07;11.60;;;7.40;99.90;;;;;;5048719;28;20216;-71
2022/01/04 08:27:41;;;;;;;18.93;11.10;;;7.40;99.90;;;;;;5047372;28;20216;-71
2022/01/04 08:30:30;;;;;;;23.93;11.93;;;7.40;99.90;;;;;;5050782;28;20225;-71
2022/01/04 08:33:20;;;;;;;17.63;10.87;;;7.60;99.90;;;;;;5052807;28;20220;-71
2022/01/04 08:36:10;;;;;;;20.37;10.50;;;7.60;99.90;;;;;;5034949;28;20665;-72
2022/01/04 08:39:00;;;;;;;16.43;10.33;;;7.60;99.90;;;;;;5035498;28;20227;-72
2022/01/04 08:41:50;;;;;;;15.70;10.20;;;7.60;99.90;;;;;;5049643;28;20803;-72
2022/01/04 08:44:39;;;;;;;17.17;9.87;;;7.70;99.90;;;;;;5038398;28;20224;-72
2022/01/04 08:47:28;;;;;;;20.37;11.00;;;7.70;99.90;;;;;;5045794;28;20221;-71
2022/01/04 08:50:18;;;;;;;16.90;10.03;;;7.70;99.90;;;;;;5050274;28;20224;-73
2022/01/04 08:53:10;;;;;;;17.70;9.90;;;7.70;99.90;;;;;;5051836;28;20243;-73
2022/01/04 08:56:01;;;;;;;18.50;10.13;;;7.70;99.90;;;;;;5032109;28;20384;-73
2022/01/04 08:58:50;;;;;;;18.00;10.20;;;7.70;99.90;;;;;;5051934;28;20306;-73
2022/01/04 09:01:39;;;;;;;16.30;10.70;;;7.70;99.90;;;;;;5053049;28;20744;-72
2022/01/04 09:04:28;;;;;;;18.83;10.23;;;7.70;99.90;;;;;;5038943;28;20217;-75
2022/01/04 09:07:18;;;;;;;18.60;10.80;;;7.80;99.90;;;;;;5050054;28;20312;-73
2022/01/04 09:10:07;;;;;;;19.93;10.20;;;7.80;99.90;;;;;;5048248;28;20228;-73
2022/01/04 09:13:01;;;;;;;18.17;10.47;;;8.00;99.90;;;;;;5048436;28;20577;-73
2022/01/04 09:18:56;;;;;;;14.93;9.57;;;8.10;99.90;;;;;;5049422;28;20229;-73
2022/01/04 09:21:45;;;;;;;18.73;10.07;;;8.10;99.90;;;;;;5051441;28;20262;-72
2022/01/04 09:24:35;;;;;;;19.47;11.70;;;8.00;99.90;;;;;;5052974;28;20225;-72
2022/01/04 09:27:24;;;;;;;18.33;9.10;;;8.00;99.90;;;;;;5034469;28;20712;-72
2022/01/04 09:30:13;;;;;;;17.60;10.23;;;8.00;99.90;;;;;;5050446;28;20720;-72
2022/01/04 09:33:02;;;;;;;14.40;9.50;;;8.10;99.90;;;;;;5050025;28;20720;-72
2022/01/04 09:35:52;;;;;;;17.07;10.60;;;8.10;99.90;;;;;;5036565;28;20217;-70
2022/01/04 09:38:45;;;;;;;14.60;10.00;;;8.10;99.90;;;;;;5034031;28;20236;-71
2022/01/04 09:41:37;;;;;;;13.57;8.97;;;8.10;99.90;;;;;;5052379;28;20948;-72
2022/01/04 09:44:27;;;;;;;16.03;10.83;;;8.30;99.90;;;;;;5055140;28;20274;-70
2022/01/04 09:47:16;;;;;;;16.90;9.93;;;8.30;99.90;;;;;;5053607;28;20237;-71
2022/01/04 09:50:08;;;;;;;16.93;10.13;;;8.30;99.90;;;;;;5052996;28;20576;-70
2022/01/04 09:52:57;;;;;;;16.37;9.47;;;8.30;99.90;;;;;;5055638;28;20275;-71
2022/01/04 09:55:49;;;;;;;16.80;9.67;;;8.30;99.90;;;;;;5056123;28;20224;-71
2022/01/04 09:58:39;;;;;;;16.00;9.80;;;8.30;99.90;;;;;;5041535;28;20255;-70
2022/01/04 10:01:33;;;;;;;14.10;9.33;;;8.30;99.90;;;;;;5051851;28;20231;-71
2022/01/04 10:04:38;;;;;;;18.53;10.53;;;8.40;99.90;;;;;;5053423;28;20236;-71
2022/01/04 10:07:29;;;;;;;17.03;9.47;;;8.40;99.90;;;;;;5036082;28;20922;-71
2022/01/04 10:10:19;;;;;;;18.73;10.13;;;8.40;99.90;;;;;;5033035;28;20907;-71
2022/01/04 10:13:11;;;;;;;14.43;9.83;;;8.40;99.90;;;;;;5049052;28;20819;-70
2022/01/04 10:16:01;;;;;;;17.50;10.07;;;8.40;99.90;;;;;;5053115;28;20718;-72
2022/01/04 10:18:51;;;;;;;16.37;9.97;;;8.40;99.90;;;;;;5037030;28;20621;-71
2022/01/04 10:21:40;;;;;;;34.37;25.47;;;8.40;99.90;;;;;;5039595;28;20232;-71
2022/01/04 10:24:28;;;;;;;14.40;9.13;;;8.30;99.90;;;;;;5049517;28;20223;-72
2022/01/04 10:27:26;;;;;;;21.47;9.90;;;8.40;99.90;;;;;;5048465;28;20278;-71
2022/01/04 10:30:22;;;;;;;14.23;10.07;;;8.40;99.90;;;;;;5046320;28;20295;-70
2022/01/04 10:33:13;;;;;;;17.13;10.20;;;8.30;99.90;;;;;;5035885;28;20224;-71
2022/01/04 10:36:11;;;;;;;19.13;10.63;;;8.30;99.90;;;;;;5026398;28;20228;-70
2022/01/04 10:39:09;;;;;;;13.80;9.97;;;8.30;99.90;;;;;;5048480;28;20721;-72
2022/01/04 10:42:06;;;;;;;16.53;10.43;;;8.30;99.90;;;;;;5050910;28;20669;-71
2022/01/04 10:44:54;;;;;;;19.07;12.17;;;8.30;99.90;;;;;;5056012;28;20220;-70
2022/01/04 10:47:43;;;;;;;21.77;10.90;;;8.30;99.90;;;;;;5054733;28;20731;-70
2022/01/04 10:50:38;;;;;;;18.33;10.83;;;8.30;99.90;;;;;;5036311;28;20416;-71
2022/01/04 10:53:30;;;;;;;18.90;12.00;;;8.40;99.90;;;;;;5038417;28;20225;-71
2022/01/04 10:56:24;;;;;;;20.00;12.00;;;8.40;99.90;;;;;;5051287;28;20724;-70
2022/01/04 10:59:13;;;;;;;18.83;11.33;;;8.30;99.90;;;;;;5053939;28;20234;-70
2022/01/04 11:02:02;;;;;;;18.70;10.53;;;8.40;99.90;;;;;;5053114;28;20230;-68
2022/01/04 11:05:12;;;;;;;17.40;10.30;;;8.40;99.90;;;;;;5037450;28;20280;-71
2022/01/04 11:08:03;;;;;;;20.20;10.93;;;8.50;99.90;;;;;;5053277;28;20228;-71
2022/01/04 11:10:53;;;;;;;16.60;10.93;;;8.50;99.90;;;;;;5038075;28;20799;-70
2022/01/04 11:13:42;;;;;;;18.30;10.93;;;8.50;99.90;;;;;;5050717;28;20229;-70
2022/01/04 11:16:32;;;;;;;22.27;11.30;;;8.40;99.90;;;;;;5047386;28;20229;-68
2022/01/04 11:19:21;;;;;;;17.50;11.37;;;8.40;99.90;;;;;;5048776;28;20225;-72
2022/01/04 11:22:10;;;;;;;18.27;11.30;;;8.50;99.90;;;;;;5049150;28;20239;-72
2022/01/04 11:25:04;;;;;;;16.07;10.93;;;8.50;99.90;;;;;;5044460;28;20234;-69
2022/01/04 11:27:54;;;;;;;18.53;10.50;;;8.50;99.90;;;;;;5048822;28;21020;-70
2022/01/04 11:30:59;;;;;;;18.13;10.80;;;8.50;99.90;;;;;;5037857;28;20227;-70
2022/01/04 11:33:55;;;;;;;18.93;10.13;;;8.50;99.90;;;;;;5051114;28;20215;-70
2022/01/04 11:36:48;;;;;;;18.23;10.07;;;8.50;99.90;;;;;;5036442;28;20302;-69
2022/01/04 11:39:38;;;;;;;18.10;9.77;;;8.50;99.90;;;;;;5054373;28;20231;-70
2022/01/04 11:42:39;;;;;;;18.03;10.47;;;8.50;99.90;;;;;;5050042;28;20542;-70
2022/01/04 11:45:44;;;;;;;20.03;10.30;;;8.40;99.90;;;;;;5035239;28;20942;-68
2022/01/04 11:48:39;;;;;;;19.97;10.57;;;8.40;99.90;;;;;;5050515;28;20240;-70
2022/01/04 11:51:38;;;;;;;17.23;10.10;;;8.40;99.90;;;;;;5043158;28;20229;-70
2022/01/04 11:54:28;;;;;;;17.03;9.87;;;8.40;99.90;;;;;;5052624;28;20233;-70
2022/01/04 11:57:18;;;;;;;14.23;9.40;;;8.50;99.90;;;;;;5050931;28;20602;-69
2022/01/04 12:00:09;;;;;;;15.03;9.67;;;8.40;99.90;;;;;;5040044;28;20249;-69
2022/01/04 12:03:09;;;;;;;16.60;9.93;;;8.40;99.90;;;;;;5051652;28;20225;-70
2022/01/04 12:06:02;;;;;;;15.37;9.83;;;8.40;99.90;;;;;;5052134;28;20238;-69
2022/01/04 12:08:52;;;;;;;17.47;10.17;;;8.40;99.90;;;;;;5037572;28;20226;-69
2022/01/04 12:11:41;;;;;;;16.77;9.67;;;8.40;99.90;;;;;;5051468;28;20223;-70
2022/01/04 12:14:33;;;;;;;17.43;10.03;;;8.40;99.90;;;;;;5051894;28;20218;-71
2022/01/04 12:17:34;;;;;;;18.30;10.07;;;8.40;99.90;;;;;;5051123;28;20216;-69
2022/01/04 12:20:50;;;;;;;20.33;10.27;;;8.40;99.90;;;;;;5056601;28;20862;-68
2022/01/04 12:23:46;;;;;;;18.53;10.47;;;8.30;99.90;;;;;;5041999;28;20300;-69
2022/01/04 12:26:36;;;;;;;15.40;9.37;;;8.20;99.90;;;;;;5050570;28;20234;-70
2022/01/04 12:29:31;;;;;;;17.20;10.00;;;8.30;99.90;;;;;;5050196;28;20221;-70
2022/01/04 12:32:24;;;;;;;17.20;10.47;;;8.30;99.90;;;;;;5052103;28;20604;-69
2022/01/04 12:35:16;;;;;;;17.33;10.67;;;8.20;99.90;;;;;;5051383;28;20306;-69
2022/01/04 12:38:07;;;;;;;16.30;10.20;;;8.20;99.90;;;;;;5049775;28;20235;-70
2022/01/04 12:40:58;;;;;;;13.70;10.30;;;8.20;99.90;;;;;;5036220;28;20955;-72
2022/01/04 12:43:50;;;;;;;16.77;10.60;;;8.20;99.90;;;;;;5035581;28;20219;-72
2022/01/04 12:46:41;;;;;;;19.50;11.53;;;8.20;99.90;;;;;;5039446;28;20234;-70
2022/01/04 12:49:32;;;;;;;18.43;11.00;;;8.20;99.90;;;;;;5039959;28;20348;-71
2022/01/04 12:52:25;;;;;;;18.40;11.30;;;8.20;99.90;;;;;;5050812;28;20228;-73
2022/01/04 12:55:15;;;;;;;18.70;11.43;;;8.20;99.90;;;;;;5052038;28;20222;-72
2022/01/04 12:58:03;;;;;;;17.93;11.70;;;8.20;99.90;;;;;;5034828;28;20548;-72
2022/01/04 13:00:52;;;;;;;19.37;12.73;;;8.20;99.90;;;;;;5036399;28;20227;-68
2022/01/04 13:03:41;;;;;;;24.60;14.00;;;8.20;99.90;;;;;;5049677;28;20213;-70
2022/01/04 13:06:32;;;;;;;19.43;12.33;;;8.20;99.90;;;;;;5040009;28;20225;-69
2022/01/04 13:09:24;;;;;;;21.83;12.47;;;8.20;99.90;;;;;;5039822;28;20232;-70
2022/01/04 13:12:13;;;;;;;21.07;13.20;;;8.30;99.90;;;;;;5051517;28;20804;-72
2022/01/04 13:15:05;;;;;;;24.40;15.83;;;8.20;99.90;;;;;;5056147;28;20221;-78
2022/01/04 13:17:55;;;;;;;25.53;13.50;;;8.30;99.90;;;;;;5057498;28;20307;-79
2022/01/04 13:20:44;;;;;;;23.93;14.50;;;8.20;99.90;;;;;;5056901;28;21107;-77
2022/01/04 13:23:37;;;;;;;24.20;14.53;;;8.20;99.90;;;;;;5051525;28;20249;-78
2022/01/04 13:26:28;;;;;;;23.93;14.40;;;8.20;99.90;;;;;;5041854;28;20212;-79
2022/01/04 13:29:24;;;;;;;22.80;15.00;;;8.20;99.90;;;;;;5056578;28;20812;-79
2022/01/04 13:32:13;;;;;;;21.57;15.27;;;8.10;99.90;;;;;;5050660;28;20605;-79
2022/01/04 13:35:04;;;;;;;26.70;16.07;;;8.10;99.90;;;;;;5056312;28;20221;-79
2022/01/04 13:37:55;;;;;;;27.40;15.77;;;8.10;99.90;;;;;;5041429;28;20228;-77
2022/01/04 13:40:45;;;;;;;28.63;16.97;;;8.00;99.90;;;;;;5058026;28;20232;-78
2022/01/04 13:43:40;;;;;;;29.40;16.90;;;8.10;99.90;;;;;;5058164;28;20217;-78
2022/01/04 13:46:29;;;;;;;27.63;16.87;;;8.10;99.90;;;;;;5042339;28;20232;-78
2022/01/04 13:49:26;;;;;;;24.57;16.90;;;8.10;99.90;;;;;;5041162;28;20234;-75
2022/01/04 13:52:16;;;;;;;29.33;17.87;;;8.00;99.90;;;;;;5041223;28;20234;-76
2022/01/04 13:55:06;;;;;;;34.97;18.87;;;8.00;99.90;;;;;;5049178;28;20233;-76
2022/01/04 13:57:55;;;;;;;33.07;18.13;;;8.10;99.90;;;;;;5035717;28;20217;-75
2022/01/04 14:00:45;;;;;;;32.63;19.47;;;8.10;99.90;;;;;;5039741;28;20216;-77
2022/01/04 14:03:34;;;;;;;27.43;18.90;;;8.00;99.90;;;;;;5053271;28;20318;-78
2022/01/04 14:06:38;;;;;;;32.00;20.10;;;7.90;99.90;;;;;;5042609;28;20248;-73
2022/01/04 14:09:30;;;;;;;29.90;19.57;;;8.00;99.90;;;;;;5042561;28;20224;-73
2022/01/04 14:12:19;;;;;;;34.40;19.47;;;8.00;99.90;;;;;;5042034;28;22011;-75
2022/01/04 14:15:09;;;;;;;33.87;20.17;;;8.10;99.90;;;;;;5036687;28;20217;-74
2022/01/04 14:18:10;;;;;;;33.47;20.57;;;8.10;99.90;;;;;;5052964;28;20212;-72
2022/01/04 14:20:59;;;;;;;34.50;21.37;;;8.10;99.90;;;;;;5052994;28;20233;-73
2022/01/04 14:23:48;;;;;;;35.60;22.20;;;8.10;99.90;;;;;;5047658;28;20236;-73
2022/01/04 14:26:37;;;;;;;41.90;22.80;;;8.10;99.90;;;;;;5042029;28;20213;-73
2022/01/04 14:29:29;;;;;;;35.50;23.37;;;8.10;99.90;;;;;;5055918;28;20213;-72
2022/01/04 14:32:21;;;;;;;39.53;24.03;;;8.10;99.90;;;;;;5052571;28;20252;-73
2022/01/04 14:35:15;;;;;;;39.83;25.50;;;8.10;99.90;;;;;;5038886;28;20236;-73
2022/01/04 14:38:03;;;;;;;35.30;23.37;;;8.10;99.90;;;;;;5049035;28;20645;-73
2022/01/04 14:40:52;;;;;;;35.53;23.73;;;8.00;99.90;;;;;;5050585;28;20324;-73
2022/01/04 14:43:41;;;;;;;44.83;25.93;;;8.10;99.90;;;;;;5051224;28;20220;-73
2022/01/04 14:46:29;;;;;;;36.43;24.50;;;8.00;99.90;;;;;;5049931;28;20239;-72
2022/01/04 14:49:18;;;;;;;38.53;24.57;;;8.00;99.90;;;;;;5047568;28;20220;-72
2022/01/04 14:52:10;;;;;;;37.20;24.40;;;8.00;99.90;;;;;;5049492;28;20225;-72